sensor_id;sensor_type;location;lat;lon;timestamp;temperature;humidity
52471;DHT22;38382;53.160;7.026;2023-02-03T00:11:24;8.40;99.90
52471;DHT22;38382;53.160;7.026;2023-02-03T00:14:29;8.90;99.90
52471;DHT22;38382;53.160;7.026;2023-02-03T00:20:48;8.80;99.90
52471;DHT22;38382;53.160;7.026;2023-02-03T00:23:36;8.10;99.90
52471;DHT22;38382;53.160;7.026;2023-02-03T00:26:57;8.10;99.90
52471;DHT22;38382;53.160;7.026;2023-02-03T00:33:26;8.30;99.90
52471;DHT22;38382;53.160;7.026;2023-02-03T00:36:35;8.40;99.90
52471;DHT22;38382;53.160;7.026;2023-02-03T00:42:59;7.90;99.90
52471;DHT22;38382;53.160;7.026;2023-02-03T00:45:41;8.30;99.90
52471;DHT22;38382;53.160;7.026;2023-02-03T00:48:06;9.40;99.90
52471;DHT22;38382;53.160;7.026;2023-02-03T00:54:02;8.00;99.90
52471;DHT22;38382;53.160;7.026;2023-02-03T00:56:28;8.30;99.90
52471;DHT22;38382;53.160;7.026;2023-02-03T00:58:59;8.20;99.90
52471;DHT22;38382;53.160;7.026;2023-02-03T01:01:25;8.50;99.90
52471;DHT22;38382;53.160;7.026;2023-02-03T01:03:54;7.10;99.90
52471;DHT22;38382;53.160;7.026;2023-02-03T01:10:38;8.50;99.90
52471;DHT22;38382;53.160;7.026;2023-02-03T01:13:40;7.60;99.90
52471;DHT22;38382;53.160;7.026;2023-02-03T01:24:44;9.30;99.90
52471;DHT22;38382;53.160;7.026;2023-02-03T01:45:02;8.30;99.90
52471;DHT22;38382;53.160;7.026;2023-02-03T01:52:04;8.90;99.90
52471;DHT22;38382;53.160;7.026;2023-02-03T01:55:23;8.80;99.90
52471;DHT22;38382;53.160;7.026;2023-02-03T02:02:04;8.30;99.90
52471;DHT22;38382;53.160;7.026;2023-02-03T02:11:19;8.00;99.90
52471;DHT22;38382;53.160;7.026;2023-02-03T02:13:47;8.20;99.90
52471;DHT22;38382;53.160;7.026;2023-02-03T02:16:21;8.10;99.90
52471;DHT22;38382;53.160;7.026;2023-02-03T02:34:17;8.20;99.90
52471;DHT22;38382;53.160;7.026;2023-02-03T02:37:01;8.20;99.90
52471;DHT22;38382;53.160;7.026;2023-02-03T02:42:30;8.20;99.90
52471;DHT22;38382;53.160;7.026;2023-02-03T02:45:09;8.20;99.90
52471;DHT22;38382;53.160;7.026;2023-02-03T02:47:37;8.20;99.90
52471;DHT22;38382;53.160;7.026;2023-02-03T02:52:31;8.20;99.90
52471;DHT22;38382;53.160;7.026;2023-02-03T02:55:09;8.20;99.90
52471;DHT22;38382;53.160;7.026;2023-02-03T02:57:36;8.40;99.90
52471;DHT22;38382;53.160;7.026;2023-02-03T03:00:04;8.20;99.90
52471;DHT22;38382;53.160;7.026;2023-02-03T03:02:34;8.20;99.90
52471;DHT22;38382;53.160;7.026;2023-02-03T03:05:02;8.20;99.90
52471;DHT22;38382;53.160;7.026;2023-02-03T03:07:32;8.20;99.90
52471;DHT22;38382;53.160;7.026;2023-02-03T03:10:03;8.30;99.90
52471;DHT22;38382;53.160;7.026;2023-02-03T03:12:35;8.20;99.90
52471;DHT22;38382;53.160;7.026;2023-02-03T03:15:15;8.10;99.90
52471;DHT22;38382;53.160;7.026;2023-02-03T03:17:46;8.30;99.90
52471;DHT22;38382;53.160;7.026;2023-02-03T03:20:24;8.70;99.90
52471;DHT22;38382;53.160;7.026;2023-02-03T03:22:59;8.30;99.90
52471;DHT22;38382;53.160;7.026;2023-02-03T03:26:01;8.20;99.90
52471;DHT22;38382;53.160;7.026;2023-02-03T03:28:47;8.20;99.90
52471;DHT22;38382;53.160;7.026;2023-02-03T03:31:17;8.20;99.90
52471;DHT22;38382;53.160;7.026;2023-02-03T03:33:43;8.20;99.90
52471;DHT22;38382;53.160;7.026;2023-02-03T03:36:21;8.10;99.90
52471;DHT22;38382;53.160;7.026;2023-02-03T03:38:54;8.10;99.90
52471;DHT22;38382;53.160;7.026;2023-02-03T03:41:32;8.20;99.90
52471;DHT22;38382;53.160;7.026;2023-02-03T03:44:03;8.10;99.90
52471;DHT22;38382;53.160;7.026;2023-02-03T03:46:35;8.10;99.90
52471;DHT22;38382;53.160;7.026;2023-02-03T03:49:07;8.20;99.90
52471;DHT22;38382;53.160;7.026;2023-02-03T03:51:41;8.10;99.90
52471;DHT22;38382;53.160;7.026;2023-02-03T03:54:12;8.40;99.90
52471;DHT22;38382;53.160;7.026;2023-02-03T03:56:59;8.10;99.90
52471;DHT22;38382;53.160;7.026;2023-02-03T03:59:29;7.10;99.90
52471;DHT22;38382;53.160;7.026;2023-02-03T04:01:56;7.10;99.90
52471;DHT22;38382;53.160;7.026;2023-02-03T04:04:27;8.10;99.90
52471;DHT22;38382;53.160;7.026;2023-02-03T04:06:53;8.20;99.90
52471;DHT22;38382;53.160;7.026;2023-02-03T04:09:19;8.20;99.90
52471;DHT22;38382;53.160;7.026;2023-02-03T04:11:45;8.30;99.90
52471;DHT22;38382;53.160;7.026;2023-02-03T04:14:30;8.20;99.90
52471;DHT22;38382;53.160;7.026;2023-02-03T04:16:57;8.30;99.90
52471;DHT22;38382;53.160;7.026;2023-02-03T04:19:29;8.20;99.90
52471;DHT22;38382;53.160;7.026;2023-02-03T04:21:55;8.40;99.90
52471;DHT22;38382;53.160;7.026;2023-02-03T04:24:21;8.20;99.90
52471;DHT22;38382;53.160;7.026;2023-02-03T04:26:49;8.20;99.90
52471;DHT22;38382;53.160;7.026;2023-02-03T04:29:15;8.30;99.90
52471;DHT22;38382;53.160;7.026;2023-02-03T04:31:41;8.30;99.90
52471;DHT22;38382;53.160;7.026;2023-02-03T04:34:07;8.20;99.90
52471;DHT22;38382;53.160;7.026;2023-02-03T04:36:32;8.30;99.90
52471;DHT22;38382;53.160;7.026;2023-02-03T04:38:58;8.30;99.90
52471;DHT22;38382;53.160;7.026;2023-02-03T04:41:24;8.20;99.90
52471;DHT22;38382;53.160;7.026;2023-02-03T04:43:50;8.30;99.90
52471;DHT22;38382;53.160;7.026;2023-02-03T04:46:15;8.40;99.90
52471;DHT22;38382;53.160;7.026;2023-02-03T04:48:43;8.40;99.90
52471;DHT22;38382;53.160;7.026;2023-02-03T04:51:09;8.40;99.90
52471;DHT22;38382;53.160;7.026;2023-02-03T04:53:35;8.30;99.90
52471;DHT22;38382;53.160;7.026;2023-02-03T04:56:01;8.40;99.90
52471;DHT22;38382;53.160;7.026;2023-02-03T04:58:27;8.40;99.90
52471;DHT22;38382;53.160;7.026;2023-02-03T05:00:53;8.40;99.90
52471;DHT22;38382;53.160;7.026;2023-02-03T05:03:19;8.40;99.90
52471;DHT22;38382;53.160;7.026;2023-02-03T05:05:45;8.40;99.90
52471;DHT22;38382;53.160;7.026;2023-02-03T05:08:11;8.50;99.90
52471;DHT22;38382;53.160;7.026;2023-02-03T05:10:37;8.50;99.90
52471;DHT22;38382;53.160;7.026;2023-02-03T05:13:03;8.50;99.90
52471;DHT22;38382;53.160;7.026;2023-02-03T05:15:28;8.50;99.90
52471;DHT22;38382;53.160;7.026;2023-02-03T05:17:54;8.50;99.90
52471;DHT22;38382;53.160;7.026;2023-02-03T05:20:20;8.50;99.90
52471;DHT22;38382;53.160;7.026;2023-02-03T05:22:46;8.50;99.90
52471;DHT22;38382;53.160;7.026;2023-02-03T05:25:14;8.40;99.90
52471;DHT22;38382;53.160;7.026;2023-02-03T05:27:40;8.50;99.90
52471;DHT22;38382;53.160;7.026;2023-02-03T05:30:07;8.60;99.90
52471;DHT22;38382;53.160;7.026;2023-02-03T05:32:33;7.20;99.90
52471;DHT22;38382;53.160;7.026;2023-02-03T05:34:59;8.50;99.90
52471;DHT22;38382;53.160;7.026;2023-02-03T05:37:25;8.50;99.90
52471;DHT22;38382;53.160;7.026;2023-02-03T05:39:51;8.60;99.90
52471;DHT22;38382;53.160;7.026;2023-02-03T05:42:17;8.40;99.90
52471;DHT22;38382;53.160;7.026;2023-02-03T05:44:42;8.50;99.90
52471;DHT22;38382;53.160;7.026;2023-02-03T05:47:08;8.50;99.90
52471;DHT22;38382;53.160;7.026;2023-02-03T05:49:34;8.40;99.90
52471;DHT22;38382;53.160;7.026;2023-02-03T05:52:00;8.60;99.90
52471;DHT22;38382;53.160;7.026;2023-02-03T05:54:25;8.50;99.90
52471;DHT22;38382;53.160;7.026;2023-02-03T05:56:51;8.40;99.90
52471;DHT22;38382;53.160;7.026;2023-02-03T05:59:17;8.40;99.90
52471;DHT22;38382;53.160;7.026;2023-02-03T06:01:43;8.40;99.90
52471;DHT22;38382;53.160;7.026;2023-02-03T06:04:09;8.50;99.90
52471;DHT22;38382;53.160;7.026;2023-02-03T06:06:34;8.40;99.90
52471;DHT22;38382;53.160;7.026;2023-02-03T06:09:05;8.40;99.90
52471;DHT22;38382;53.160;7.026;2023-02-03T06:11:32;8.40;99.90
52471;DHT22;38382;53.160;7.026;2023-02-03T06:13:58;8.40;99.90
52471;DHT22;38382;53.160;7.026;2023-02-03T06:16:25;8.50;99.90
52471;DHT22;38382;53.160;7.026;2023-02-03T06:18:52;8.50;99.90
52471;DHT22;38382;53.160;7.026;2023-02-03T06:21:19;8.40;99.90
52471;DHT22;38382;53.160;7.026;2023-02-03T06:23:45;8.50;99.90
52471;DHT22;38382;53.160;7.026;2023-02-03T06:26:11;8.50;99.90
52471;DHT22;38382;53.160;7.026;2023-02-03T06:28:37;8.50;99.90
52471;DHT22;38382;53.160;7.026;2023-02-03T06:31:04;8.50;99.90
52471;DHT22;38382;53.160;7.026;2023-02-03T06:33:30;8.50;99.90
52471;DHT22;38382;53.160;7.026;2023-02-03T06:35:56;8.40;99.90
52471;DHT22;38382;53.160;7.026;2023-02-03T06:38:21;7.10;99.90
52471;DHT22;38382;53.160;7.026;2023-02-03T06:40:47;8.40;99.90
52471;DHT22;38382;53.160;7.026;2023-02-03T06:43:13;8.40;99.90
52471;DHT22;38382;53.160;7.026;2023-02-03T06:45:39;8.50;99.90
52471;DHT22;38382;53.160;7.026;2023-02-03T06:48:05;8.40;99.90
52471;DHT22;38382;53.160;7.026;2023-02-03T06:50:32;8.60;99.90
52471;DHT22;38382;53.160;7.026;2023-02-03T06:52:58;8.50;99.90
52471;DHT22;38382;53.160;7.026;2023-02-03T06:55:24;8.50;99.90
52471;DHT22;38382;53.160;7.026;2023-02-03T06:57:50;8.40;99.90
52471;DHT22;38382;53.160;7.026;2023-02-03T07:00:17;8.40;99.90
52471;DHT22;38382;53.160;7.026;2023-02-03T07:02:43;8.40;99.90
52471;DHT22;38382;53.160;7.026;2023-02-03T07:05:09;8.50;99.90
52471;DHT22;38382;53.160;7.026;2023-02-03T07:07:35;8.50;99.90
52471;DHT22;38382;53.160;7.026;2023-02-03T07:10:04;8.40;99.90
52471;DHT22;38382;53.160;7.026;2023-02-03T07:12:30;8.50;99.90
52471;DHT22;38382;53.160;7.026;2023-02-03T07:14:56;8.50;99.90
52471;DHT22;38382;53.160;7.026;2023-02-03T07:17:22;8.50;99.90
52471;DHT22;38382;53.160;7.026;2023-02-03T07:19:47;8.50;99.90
52471;DHT22;38382;53.160;7.026;2023-02-03T07:22:13;8.50;99.90
52471;DHT22;38382;53.160;7.026;2023-02-03T07:24:39;8.50;99.90
52471;DHT22;38382;53.160;7.026;2023-02-03T07:27:08;8.70;99.90
52471;DHT22;38382;53.160;7.026;2023-02-03T07:29:34;8.60;99.90
52471;DHT22;38382;53.160;7.026;2023-02-03T07:31:59;8.70;99.90
52471;DHT22;38382;53.160;7.026;2023-02-03T07:34:27;8.70;99.90
52471;DHT22;38382;53.160;7.026;2023-02-03T07:36:53;8.60;99.90
52471;DHT22;38382;53.160;7.026;2023-02-03T07:39:19;8.70;99.90
52471;DHT22;38382;53.160;7.026;2023-02-03T07:41:45;8.70;99.90
52471;DHT22;38382;53.160;7.026;2023-02-03T07:44:11;8.70;99.90
52471;DHT22;38382;53.160;7.026;2023-02-03T07:47:08;8.80;99.90
52471;DHT22;38382;53.160;7.026;2023-02-03T07:49:43;8.80;99.90
52471;DHT22;38382;53.160;7.026;2023-02-03T07:52:11;8.60;99.90
52471;DHT22;38382;53.160;7.026;2023-02-03T07:54:42;8.70;99.90
52471;DHT22;38382;53.160;7.026;2023-02-03T07:57:08;8.90;99.90
52471;DHT22;38382;53.160;7.026;2023-02-03T07:59:36;9.10;99.90
52471;DHT22;38382;53.160;7.026;2023-02-03T08:02:02;9.00;99.90
52471;DHT22;38382;53.160;7.026;2023-02-03T08:04:28;9.00;99.90
52471;DHT22;38382;53.160;7.026;2023-02-03T08:06:54;8.30;99.90
52471;DHT22;38382;53.160;7.026;2023-02-03T08:09:19;9.30;99.90
52471;DHT22;38382;53.160;7.026;2023-02-03T08:11:45;9.00;99.90
52471;DHT22;38382;53.160;7.026;2023-02-03T08:14:11;9.00;99.90
52471;DHT22;38382;53.160;7.026;2023-02-03T08:16:36;9.00;99.90
52471;DHT22;38382;53.160;7.026;2023-02-03T08:19:02;8.90;99.90
52471;DHT22;38382;53.160;7.026;2023-02-03T08:21:28;9.00;99.90
52471;DHT22;38382;53.160;7.026;2023-02-03T08:23:54;8.90;99.90
52471;DHT22;38382;53.160;7.026;2023-02-03T08:26:20;8.90;99.90
52471;DHT22;38382;53.160;7.026;2023-02-03T08:28:49;8.10;99.90
52471;DHT22;38382;53.160;7.026;2023-02-03T08:31:15;9.00;99.90
52471;DHT22;38382;53.160;7.026;2023-02-03T08:33:41;9.00;99.90
52471;DHT22;38382;53.160;7.026;2023-02-03T08:36:07;9.00;99.90
52471;DHT22;38382;53.160;7.026;2023-02-03T08:38:33;9.00;99.90
52471;DHT22;38382;53.160;7.026;2023-02-03T08:40:59;9.00;99.90
52471;DHT22;38382;53.160;7.026;2023-02-03T08:43:24;9.00;99.90
52471;DHT22;38382;53.160;7.026;2023-02-03T08:45:50;9.00;99.90
52471;DHT22;38382;53.160;7.026;2023-02-03T08:48:16;9.00;99.90
52471;DHT22;38382;53.160;7.026;2023-02-03T08:50:42;9.00;99.90
52471;DHT22;38382;53.160;7.026;2023-02-03T08:53:10;9.00;99.90
52471;DHT22;38382;53.160;7.026;2023-02-03T08:55:39;9.00;99.90
52471;DHT22;38382;53.160;7.026;2023-02-03T08:58:05;9.00;99.90
52471;DHT22;38382;53.160;7.026;2023-02-03T09:00:30;9.00;99.90
52471;DHT22;38382;53.160;7.026;2023-02-03T09:02:56;9.10;99.90
52471;DHT22;38382;53.160;7.026;2023-02-03T09:05:22;9.10;99.90
52471;DHT22;38382;53.160;7.026;2023-02-03T09:07:48;9.10;99.90
52471;DHT22;38382;53.160;7.026;2023-02-03T09:10:13;9.10;99.90
52471;DHT22;38382;53.160;7.026;2023-02-03T09:12:39;9.10;99.90
52471;DHT22;38382;53.160;7.026;2023-02-03T09:15:05;9.10;99.90
52471;DHT22;38382;53.160;7.026;2023-02-03T09:17:31;9.10;99.90
52471;DHT22;38382;53.160;7.026;2023-02-03T09:19:57;9.10;99.90
52471;DHT22;38382;53.160;7.026;2023-02-03T09:22:22;9.10;99.90
52471;DHT22;38382;53.160;7.026;2023-02-03T09:24:48;9.20;99.90
52471;DHT22;38382;53.160;7.026;2023-02-03T09:27:15;9.10;99.90
52471;DHT22;38382;53.160;7.026;2023-02-03T09:29:41;9.10;99.90
52471;DHT22;38382;53.160;7.026;2023-02-03T09:32:07;9.10;99.90
52471;DHT22;38382;53.160;7.026;2023-02-03T09:34:35;9.20;99.90
52471;DHT22;38382;53.160;7.026;2023-02-03T09:37:01;9.10;99.90
52471;DHT22;38382;53.160;7.026;2023-02-03T09:39:28;9.20;99.90
52471;DHT22;38382;53.160;7.026;2023-02-03T09:42:41;9.20;99.90
52471;DHT22;38382;53.160;7.026;2023-02-03T09:45:20;9.20;99.90
52471;DHT22;38382;53.160;7.026;2023-02-03T09:47:49;9.20;99.90
52471;DHT22;38382;53.160;7.026;2023-02-03T09:50:22;9.20;99.90
52471;DHT22;38382;53.160;7.026;2023-02-03T09:52:49;9.30;99.90
52471;DHT22;38382;53.160;7.026;2023-02-03T10:00:35;9.40;99.90
52471;DHT22;38382;53.160;7.026;2023-02-03T10:03:24;9.50;99.90
52471;DHT22;38382;53.160;7.026;2023-02-03T10:17:29;9.50;99.90
52471;DHT22;38382;53.160;7.026;2023-02-03T10:20:07;9.50;99.90
52471;DHT22;38382;53.160;7.026;2023-02-03T10:22:46;9.40;99.90
52471;DHT22;38382;53.160;7.026;2023-02-03T10:27:40;9.60;99.90
52471;DHT22;38382;53.160;7.026;2023-02-03T10:30:26;9.70;99.90
52471;DHT22;38382;53.160;7.026;2023-02-03T10:33:13;9.80;99.90
52471;DHT22;38382;53.160;7.026;2023-02-03T10:35:52;9.90;99.90
52471;DHT22;38382;53.160;7.026;2023-02-03T10:41:08;10.10;99.90
52471;DHT22;38382;53.160;7.026;2023-02-03T10:43:37;10.10;99.90
52471;DHT22;38382;53.160;7.026;2023-02-03T10:48:42;10.20;99.90
52471;DHT22;38382;53.160;7.026;2023-02-03T10:51:19;10.10;99.90
52471;DHT22;38382;53.160;7.026;2023-02-03T10:53:45;10.20;99.90
52471;DHT22;38382;53.160;7.026;2023-02-03T10:56:16;10.30;99.90
52471;DHT22;38382;53.160;7.026;2023-02-03T10:58:56;10.30;99.90
52471;DHT22;38382;53.160;7.026;2023-02-03T11:01:48;10.40;99.90
52471;DHT22;38382;53.160;7.026;2023-02-03T11:04:31;10.30;99.90
52471;DHT22;38382;53.160;7.026;2023-02-03T11:07:00;10.40;99.90
52471;DHT22;38382;53.160;7.026;2023-02-03T11:09:36;10.40;99.90
52471;DHT22;38382;53.160;7.026;2023-02-03T11:12:12;10.50;99.90
52471;DHT22;38382;53.160;7.026;2023-02-03T11:14:41;10.50;99.90
52471;DHT22;38382;53.160;7.026;2023-02-03T11:17:20;10.50;99.90
52471;DHT22;38382;53.160;7.026;2023-02-03T11:19:52;10.50;99.90
52471;DHT22;38382;53.160;7.026;2023-02-03T11:22:35;10.60;99.90
52471;DHT22;38382;53.160;7.026;2023-02-03T11:25:04;10.50;99.90
52471;DHT22;38382;53.160;7.026;2023-02-03T11:27:39;10.60;99.90
52471;DHT22;38382;53.160;7.026;2023-02-03T11:32:43;10.50;99.90
52471;DHT22;38382;53.160;7.026;2023-02-03T11:37:46;10.40;99.90
52471;DHT22;38382;53.160;7.026;2023-02-03T11:42:45;10.50;99.90
52471;DHT22;38382;53.160;7.026;2023-02-03T11:45:27;10.60;99.90
52471;DHT22;38382;53.160;7.026;2023-02-03T11:48:11;10.70;99.90
52471;DHT22;38382;53.160;7.026;2023-02-03T11:51:52;10.70;99.90
52471;DHT22;38382;53.160;7.026;2023-02-03T12:02:01;10.70;99.90
52471;DHT22;38382;53.160;7.026;2023-02-03T12:15:28;11.10;99.90
52471;DHT22;38382;53.160;7.026;2023-02-03T12:20:46;10.70;99.90
52471;DHT22;38382;53.160;7.026;2023-02-03T12:28:46;10.10;99.90
52471;DHT22;38382;53.160;7.026;2023-02-03T12:34:18;9.90;99.90
52471;DHT22;38382;53.160;7.026;2023-02-03T12:36:56;9.80;99.90
52471;DHT22;38382;53.160;7.026;2023-02-03T12:39:38;9.80;99.90
52471;DHT22;38382;53.160;7.026;2023-02-03T12:42:31;9.80;99.90
52471;DHT22;38382;53.160;7.026;2023-02-03T12:45:18;9.80;99.90
52471;DHT22;38382;53.160;7.026;2023-02-03T12:47:53;9.90;99.90
52471;DHT22;38382;53.160;7.026;2023-02-03T12:53:21;10.10;99.90
52471;DHT22;38382;53.160;7.026;2023-02-03T12:55:58;10.30;99.90
52471;DHT22;38382;53.160;7.026;2023-02-03T12:58:30;10.70;99.90
52471;DHT22;38382;53.160;7.026;2023-02-03T13:01:12;11.00;99.90
52471;DHT22;38382;53.160;7.026;2023-02-03T13:04:09;11.20;99.90
52471;DHT22;38382;53.160;7.026;2023-02-03T13:06:52;11.30;99.90
52471;DHT22;38382;53.160;7.026;2023-02-03T13:20:22;10.50;99.90
52471;DHT22;38382;53.160;7.026;2023-02-03T13:22:49;10.20;99.90
52471;DHT22;38382;53.160;7.026;2023-02-03T13:25:31;10.00;99.90
52471;DHT22;38382;53.160;7.026;2023-02-03T13:28:12;9.90;99.90
52471;DHT22;38382;53.160;7.026;2023-02-03T13:42:24;9.50;99.90
52471;DHT22;38382;53.160;7.026;2023-02-03T13:45:13;9.50;99.90
52471;DHT22;38382;53.160;7.026;2023-02-03T13:47:46;9.50;99.90
52471;DHT22;38382;53.160;7.026;2023-02-03T13:50:27;9.40;99.90
52471;DHT22;38382;53.160;7.026;2023-02-03T13:57:56;9.20;99.90
52471;DHT22;38382;53.160;7.026;2023-02-03T14:03:42;9.10;99.90
52471;DHT22;38382;53.160;7.026;2023-02-03T14:09:00;9.10;99.90
52471;DHT22;38382;53.160;7.026;2023-02-03T14:19:04;9.00;99.90
52471;DHT22;38382;53.160;7.026;2023-02-03T14:21:50;9.00;99.90
52471;DHT22;38382;53.160;7.026;2023-02-03T14:24:17;8.90;99.90
52471;DHT22;38382;53.160;7.026;2023-02-03T14:26:49;8.90;99.90
52471;DHT22;38382;53.160;7.026;2023-02-03T14:29:31;8.90;99.90
52471;DHT22;38382;53.160;7.026;2023-02-03T14:32:10;9.00;99.90
52471;DHT22;38382;53.160;7.026;2023-02-03T14:34:44;8.90;99.90
52471;DHT22;38382;53.160;7.026;2023-02-03T14:37:17;8.90;99.90
52471;DHT22;38382;53.160;7.026;2023-02-03T14:55:43;8.70;99.90
52471;DHT22;38382;53.160;7.026;2023-02-03T14:58:35;8.70;99.90
52471;DHT22;38382;53.160;7.026;2023-02-03T15:01:03;8.60;99.90
52471;DHT22;38382;53.160;7.026;2023-02-03T15:03:32;8.60;99.90
52471;DHT22;38382;53.160;7.026;2023-02-03T15:06:02;8.50;99.90
52471;DHT22;38382;53.160;7.026;2023-02-03T15:08:38;8.40;99.90
52471;DHT22;38382;53.160;7.026;2023-02-03T15:11:26;8.40;99.90
52471;DHT22;38382;53.160;7.026;2023-02-03T15:13:54;8.30;99.90
52471;DHT22;38382;53.160;7.026;2023-02-03T15:16:24;8.20;99.90
52471;DHT22;38382;53.160;7.026;2023-02-03T15:18:59;8.20;99.90
52471;DHT22;38382;53.160;7.026;2023-02-03T15:21:27;8.10;99.90
52471;DHT22;38382;53.160;7.026;2023-02-03T15:23:53;8.10;99.90
52471;DHT22;38382;53.160;7.026;2023-02-03T15:26:24;8.10;99.90
52471;DHT22;38382;53.160;7.026;2023-02-03T15:29:00;8.10;99.90
52471;DHT22;38382;53.160;7.026;2023-02-03T15:31:37;8.00;99.90
52471;DHT22;38382;53.160;7.026;2023-02-03T15:36:46;7.90;99.90
52471;DHT22;38382;53.160;7.026;2023-02-03T15:39:21;7.90;99.90
52471;DHT22;38382;53.160;7.026;2023-02-03T15:41:53;7.80;99.90
52471;DHT22;38382;53.160;7.026;2023-02-03T15:46:51;7.80;99.90
52471;DHT22;38382;53.160;7.026;2023-02-03T15:49:58;7.70;99.90
52471;DHT22;38382;53.160;7.026;2023-02-03T15:52:19;7.70;99.90
52471;DHT22;38382;53.160;7.026;2023-02-03T15:54:50;7.60;99.90
52471;DHT22;38382;53.160;7.026;2023-02-03T15:59:56;7.50;99.90
52471;DHT22;38382;53.160;7.026;2023-02-03T16:02:30;7.50;99.90
52471;DHT22;38382;53.160;7.026;2023-02-03T16:04:57;7.50;99.90
52471;DHT22;38382;53.160;7.026;2023-02-03T16:07:29;7.50;99.90
52471;DHT22;38382;53.160;7.026;2023-02-03T16:09:59;7.40;99.90
52471;DHT22;38382;53.160;7.026;2023-02-03T16:12:31;7.40;99.90
52471;DHT22;38382;53.160;7.026;2023-02-03T16:14:59;7.30;99.90
52471;DHT22;38382;53.160;7.026;2023-02-03T16:17:34;7.30;99.90
52471;DHT22;38382;53.160;7.026;2023-02-03T16:22:40;7.20;99.90
52471;DHT22;38382;53.160;7.026;2023-02-03T16:25:21;7.20;99.90
52471;DHT22;38382;53.160;7.026;2023-02-03T16:31:19;7.20;99.90
52471;DHT22;38382;53.160;7.026;2023-02-03T16:34:18;7.10;99.90
52471;DHT22;38382;53.160;7.026;2023-02-03T16:37:19;7.20;99.90
52471;DHT22;38382;53.160;7.026;2023-02-03T16:40:06;7.10;99.90
52471;DHT22;38382;53.160;7.026;2023-02-03T16:42:50;7.10;99.90
52471;DHT22;38382;53.160;7.026;2023-02-03T16:45:34;7.00;99.90
52471;DHT22;38382;53.160;7.026;2023-02-03T16:48:22;7.00;99.90
52471;DHT22;38382;53.160;7.026;2023-02-03T16:51:11;7.00;99.90
52471;DHT22;38382;53.160;7.026;2023-02-03T16:53:40;7.10;99.90
52471;DHT22;38382;53.160;7.026;2023-02-03T16:56:06;6.90;99.90
52471;DHT22;38382;53.160;7.026;2023-02-03T16:58:32;6.90;99.90
52471;DHT22;38382;53.160;7.026;2023-02-03T17:01:00;6.90;99.90
52471;DHT22;38382;53.160;7.026;2023-02-03T17:03:27;6.90;99.90
52471;DHT22;38382;53.160;7.026;2023-02-03T17:05:55;6.80;99.90
52471;DHT22;38382;53.160;7.026;2023-02-03T17:08:22;6.90;99.90
52471;DHT22;38382;53.160;7.026;2023-02-03T17:10:48;6.70;99.90
52471;DHT22;38382;53.160;7.026;2023-02-03T17:13:15;6.70;99.90
52471;DHT22;38382;53.160;7.026;2023-02-03T17:15:47;6.70;99.90
52471;DHT22;38382;53.160;7.026;2023-02-03T17:18:13;6.70;99.90
52471;DHT22;38382;53.160;7.026;2023-02-03T17:20:40;6.70;99.90
52471;DHT22;38382;53.160;7.026;2023-02-03T17:23:07;6.70;99.90
52471;DHT22;38382;53.160;7.026;2023-02-03T17:25:33;6.70;99.90
52471;DHT22;38382;53.160;7.026;2023-02-03T17:28:02;6.80;99.90
52471;DHT22;38382;53.160;7.026;2023-02-03T17:30:28;6.90;99.90
52471;DHT22;38382;53.160;7.026;2023-02-03T17:33:01;6.90;99.90
52471;DHT22;38382;53.160;7.026;2023-02-03T17:35:28;6.90;99.90
52471;DHT22;38382;53.160;7.026;2023-02-03T17:37:54;7.00;99.90
52471;DHT22;38382;53.160;7.026;2023-02-03T17:40:20;7.00;99.90
52471;DHT22;38382;53.160;7.026;2023-02-03T17:42:46;7.00;99.90
52471;DHT22;38382;53.160;7.026;2023-02-03T17:45:11;7.00;99.90
52471;DHT22;38382;53.160;7.026;2023-02-03T17:47:37;7.00;99.90
52471;DHT22;38382;53.160;7.026;2023-02-03T17:50:03;7.10;99.90
52471;DHT22;38382;53.160;7.026;2023-02-03T17:52:29;7.00;99.90
52471;DHT22;38382;53.160;7.026;2023-02-03T17:54:55;7.10;99.90
52471;DHT22;38382;53.160;7.026;2023-02-03T17:57:20;7.00;99.90
52471;DHT22;38382;53.160;7.026;2023-02-03T17:59:47;7.10;99.90
52471;DHT22;38382;53.160;7.026;2023-02-03T18:02:13;7.00;99.90
52471;DHT22;38382;53.160;7.026;2023-02-03T18:04:38;7.00;99.90
52471;DHT22;38382;53.160;7.026;2023-02-03T18:07:04;7.00;99.90
52471;DHT22;38382;53.160;7.026;2023-02-03T18:09:30;7.00;99.90
52471;DHT22;38382;53.160;7.026;2023-02-03T18:11:56;7.00;99.90
52471;DHT22;38382;53.160;7.026;2023-02-03T18:14:21;7.00;99.90
52471;DHT22;38382;53.160;7.026;2023-02-03T18:16:47;7.00;99.90
52471;DHT22;38382;53.160;7.026;2023-02-03T18:19:14;6.90;99.90
52471;DHT22;38382;53.160;7.026;2023-02-03T18:21:41;6.90;99.90
52471;DHT22;38382;53.160;7.026;2023-02-03T18:24:10;6.90;99.90
52471;DHT22;38382;53.160;7.026;2023-02-03T18:26:45;6.80;99.90
52471;DHT22;38382;53.160;7.026;2023-02-03T18:29:11;6.80;99.90
52471;DHT22;38382;53.160;7.026;2023-02-03T18:31:38;7.10;99.90
52471;DHT22;38382;53.160;7.026;2023-02-03T18:34:04;7.20;99.90
52471;DHT22;38382;53.160;7.026;2023-02-03T18:36:31;6.70;99.90
52471;DHT22;38382;53.160;7.026;2023-02-03T18:38:58;6.60;99.90
52471;DHT22;38382;53.160;7.026;2023-02-03T18:41:25;6.70;99.90
52471;DHT22;38382;53.160;7.026;2023-02-03T18:43:51;6.70;99.90
52471;DHT22;38382;53.160;7.026;2023-02-03T18:46:19;6.60;99.90
52471;DHT22;38382;53.160;7.026;2023-02-03T18:48:45;6.60;99.90
52471;DHT22;38382;53.160;7.026;2023-02-03T18:51:14;6.60;99.90
52471;DHT22;38382;53.160;7.026;2023-02-03T18:53:40;6.70;99.90
52471;DHT22;38382;53.160;7.026;2023-02-03T18:56:14;6.60;99.90
52471;DHT22;38382;53.160;7.026;2023-02-03T18:58:40;6.60;99.90
52471;DHT22;38382;53.160;7.026;2023-02-03T19:01:06;6.60;99.90
52471;DHT22;38382;53.160;7.026;2023-02-03T19:03:33;6.60;99.90
52471;DHT22;38382;53.160;7.026;2023-02-03T19:05:59;6.60;99.90
52471;DHT22;38382;53.160;7.026;2023-02-03T19:08:25;6.50;99.90
52471;DHT22;38382;53.160;7.026;2023-02-03T19:10:52;6.50;99.90
52471;DHT22;38382;53.160;7.026;2023-02-03T19:13:19;6.50;99.90
52471;DHT22;38382;53.160;7.026;2023-02-03T19:15:48;6.50;99.90
52471;DHT22;38382;53.160;7.026;2023-02-03T19:18:15;6.50;99.90
52471;DHT22;38382;53.160;7.026;2023-02-03T19:20:42;6.50;99.90
52471;DHT22;38382;53.160;7.026;2023-02-03T19:23:09;6.40;99.90
52471;DHT22;38382;53.160;7.026;2023-02-03T19:25:35;6.40;99.90
52471;DHT22;38382;53.160;7.026;2023-02-03T19:28:04;6.40;99.90
52471;DHT22;38382;53.160;7.026;2023-02-03T19:30:32;6.50;99.90
52471;DHT22;38382;53.160;7.026;2023-02-03T19:32:58;6.40;99.90
52471;DHT22;38382;53.160;7.026;2023-02-03T19:35:24;6.40;99.90
52471;DHT22;38382;53.160;7.026;2023-02-03T19:37:50;6.50;99.90
52471;DHT22;38382;53.160;7.026;2023-02-03T19:40:16;6.50;99.90
52471;DHT22;38382;53.160;7.026;2023-02-03T19:42:42;6.50;99.90
52471;DHT22;38382;53.160;7.026;2023-02-03T19:45:08;6.50;99.90
52471;DHT22;38382;53.160;7.026;2023-02-03T19:47:37;6.50;99.90
52471;DHT22;38382;53.160;7.026;2023-02-03T19:54:29;6.60;99.90
52471;DHT22;38382;53.160;7.026;2023-02-03T19:56:57;7.90;99.90
52471;DHT22;38382;53.160;7.026;2023-02-03T19:59:23;5.30;99.90
52471;DHT22;38382;53.160;7.026;2023-02-03T20:02:17;6.70;99.90